createdAt,value
2023-05-07T00:02:02.294Z,4.20
2023-05-07T00:04:36.834Z,2.83
2023-05-07T00:07:05.476Z,3.60
2023-05-07T00:09:33.861Z,4.63
2023-05-07T00:12:02.393Z,4.50
2023-05-07T00:14:30.773Z,4.97
2023-05-07T00:17:00.655Z,3.33
2023-05-07T00:19:29.009Z,3.40
2023-05-07T00:21:57.732Z,3.80
2023-05-07T00:24:26.189Z,5.40
2023-05-07T00:26:54.668Z,5.90
2023-05-07T00:29:23.087Z,3.03
2023-05-07T00:31:52.389Z,3.87
2023-05-07T00:34:22.305Z,3.20
2023-05-07T00:36:51.010Z,3.77
2023-05-07T00:39:19.377Z,4.20
2023-05-07T00:41:48.265Z,3.90
2023-05-07T00:44:16.841Z,3.37
2023-05-07T00:46:45.847Z,3.67
2023-05-07T00:49:14.518Z,3.13
2023-05-07T00:51:44.393Z,3.07
2023-05-07T00:54:13.606Z,5.03
2023-05-07T00:56:42.547Z,2.97
2023-05-07T00:59:11.122Z,4.10
2023-05-07T01:01:39.628Z,3.87
2023-05-07T01:04:08.197Z,3.73
2023-05-07T01:06:37.060Z,6.20
2023-05-07T01:09:08.353Z,3.30
2023-05-07T01:11:36.756Z,7.30
2023-05-07T01:14:05.384Z,2.90
2023-05-07T01:16:34.072Z,5.10
2023-05-07T01:19:03.160Z,3.40
2023-05-07T01:21:35.490Z,3.03
2023-05-07T01:24:05.650Z,3.97
2023-05-07T01:26:34.012Z,3.63
2023-05-07T01:29:02.408Z,4.20
2023-05-07T01:31:31.665Z,3.57
2023-05-07T01:34:02.359Z,3.73
2023-05-07T01:36:32.318Z,3.50
2023-05-07T01:39:01.296Z,3.30
2023-05-07T01:41:31.246Z,4.00
2023-05-07T01:44:00.917Z,3.60
2023-05-07T01:46:29.663Z,3.33
2023-05-07T01:48:58.145Z,3.17
2023-05-07T01:51:27.231Z,3.20
2023-05-07T01:53:56.477Z,3.97
2023-05-07T01:56:24.985Z,6.10
2023-05-07T01:58:54.720Z,3.90
2023-05-07T02:01:23.371Z,6.83
2023-05-07T02:03:51.912Z,4.30
2023-05-07T02:06:20.476Z,2.83
2023-05-07T02:08:48.855Z,2.80
2023-05-07T02:11:17.260Z,7.07
2023-05-07T02:13:45.985Z,3.27
2023-05-07T02:16:16.447Z,2.93
2023-05-07T02:18:44.778Z,3.33
2023-05-07T02:21:13.204Z,3.60
2023-05-07T02:23:41.636Z,3.70
2023-05-07T02:26:10.060Z,4.30
2023-05-07T02:28:38.398Z,3.73
2023-05-07T02:31:06.776Z,2.70
2023-05-07T02:33:37.664Z,3.47
2023-05-07T02:36:09.992Z,3.33
2023-05-07T02:38:38.359Z,3.00
2023-05-07T02:41:06.757Z,5.63
2023-05-07T02:43:35.268Z,3.87
2023-05-07T02:46:04.897Z,3.10
2023-05-07T02:48:33.405Z,3.00
2023-05-07T02:51:03.701Z,3.37
2023-05-07T02:53:32.020Z,2.80
2023-05-07T02:56:01.051Z,3.47
2023-05-07T02:58:29.728Z,2.97
2023-05-07T03:00:58.374Z,4.50
2023-05-07T03:03:26.858Z,3.60
2023-05-07T03:05:55.542Z,3.27
2023-05-07T03:08:25.454Z,2.97
2023-05-07T03:10:53.979Z,3.80
2023-05-07T03:13:22.574Z,6.10
2023-05-07T03:15:51.308Z,2.87
2023-05-07T03:18:19.882Z,3.63
2023-05-07T03:20:48.826Z,3.13
2023-05-07T03:23:17.310Z,3.10
2023-05-07T03:25:47.086Z,3.17
2023-05-07T03:28:15.604Z,4.87
2023-05-07T03:30:44.002Z,3.93
2023-05-07T03:33:12.460Z,3.30
2023-05-07T03:35:40.892Z,3.23
2023-05-07T03:38:10.547Z,2.90
2023-05-07T03:40:38.944Z,2.70
2023-05-07T03:43:09.182Z,4.13
2023-05-07T03:45:37.641Z,3.50
2023-05-07T03:48:06.317Z,3.50
2023-05-07T03:50:34.719Z,6.63
2023-05-07T03:53:03.077Z,3.63
2023-05-07T03:55:31.453Z,3.13
2023-05-07T03:57:59.832Z,2.60
2023-05-07T04:00:29.646Z,3.10
2023-05-07T04:02:58.091Z,3.07
2023-05-07T04:05:26.811Z,3.03
2023-05-07T04:07:55.202Z,3.20
2023-05-07T04:10:23.628Z,3.30
2023-05-07T04:12:51.990Z,3.53
2023-05-07T04:15:20.662Z,3.30
2023-05-07T04:17:50.379Z,6.07
2023-05-07T04:20:19.568Z,3.77
2023-05-07T04:22:47.878Z,3.20
2023-05-07T04:25:16.371Z,3.40
2023-05-07T04:27:44.745Z,3.20
2023-05-07T04:30:14.249Z,2.77
2023-05-07T04:32:43.021Z,4.53
2023-05-07T04:35:13.003Z,2.90
2023-05-07T04:37:41.379Z,2.90
2023-05-07T04:40:11.782Z,3.63
2023-05-07T04:42:40.629Z,3.20
2023-05-07T04:45:09.691Z,3.30
2023-05-07T04:47:38.136Z,3.00
2023-05-07T04:50:06.844Z,3.40
2023-05-07T04:52:36.580Z,3.53
2023-05-07T04:55:05.572Z,3.10
2023-05-07T04:57:33.922Z,3.30
2023-05-07T05:00:02.232Z,3.73
2023-05-07T05:02:30.702Z,3.40
2023-05-07T05:05:00.156Z,3.30
2023-05-07T05:07:28.595Z,3.27
2023-05-07T05:09:58.534Z,2.97
2023-05-07T05:12:27.003Z,2.93
2023-05-07T05:14:55.390Z,3.60
2023-05-07T05:17:23.766Z,3.43
2023-05-07T05:19:52.256Z,3.60
2023-05-07T05:22:22.029Z,3.07
2023-05-07T05:24:50.519Z,4.23
2023-05-07T05:27:20.339Z,3.57
2023-05-07T05:29:48.799Z,3.53
2023-05-07T05:32:17.252Z,3.33
2023-05-07T05:34:46.154Z,3.33
2023-05-07T05:37:14.615Z,4.33
2023-05-07T05:39:43.580Z,3.53
2023-05-07T05:42:11.916Z,4.10
2023-05-07T05:44:41.772Z,3.90
2023-05-07T05:47:10.159Z,3.63
2023-05-07T05:49:38.584Z,4.83
2023-05-07T05:52:08.330Z,3.63
2023-05-07T05:54:38.313Z,3.10
2023-05-07T05:57:07.325Z,3.60
2023-05-07T05:59:35.785Z,4.93
2023-05-07T06:02:05.677Z,3.53
2023-05-07T06:04:34.192Z,4.33
2023-05-07T06:07:02.657Z,3.27
2023-05-07T06:09:30.999Z,5.00
2023-05-07T06:12:00.746Z,4.10
2023-05-07T06:14:29.385Z,2.87
2023-05-07T06:16:58.085Z,3.50
2023-05-07T06:19:29.212Z,3.60
2023-05-07T06:21:58.269Z,3.97
2023-05-07T06:24:26.982Z,2.77
2023-05-07T06:26:55.474Z,3.10
2023-05-07T06:29:23.887Z,5.20
2023-05-07T06:31:52.416Z,4.97
2023-05-07T06:34:20.901Z,4.03
2023-05-07T06:36:52.830Z,4.20
2023-05-07T06:39:21.524Z,3.83
2023-05-07T06:41:49.898Z,2.90
2023-05-07T06:44:18.299Z,2.67
2023-05-07T06:46:47.001Z,2.50
2023-05-07T06:49:15.659Z,2.93
2023-05-07T06:51:44.078Z,3.03
2023-05-07T06:54:13.845Z,4.50
2023-05-07T06:56:42.903Z,3.07
2023-05-07T06:59:11.386Z,2.57
2023-05-07T07:01:42.744Z,2.80
2023-05-07T07:04:11.335Z,3.37
2023-05-07T07:06:39.780Z,4.30
2023-05-07T07:09:08.171Z,3.00
2023-05-07T07:11:39.359Z,4.23
2023-05-07T07:14:08.381Z,3.00
2023-05-07T07:16:36.932Z,2.60
2023-05-07T07:19:05.412Z,2.00
2023-05-07T07:21:34.009Z,3.07
2023-05-07T07:24:02.543Z,2.17
2023-05-07T07:26:31.040Z,2.47
2023-05-07T07:29:00.858Z,2.87
2023-05-07T07:31:29.309Z,2.83
2023-05-07T07:33:57.775Z,3.90
2023-05-07T07:36:35.437Z,4.40
2023-05-07T07:39:13.920Z,3.07
2023-05-07T07:41:42.364Z,2.13
2023-05-07T07:44:15.821Z,2.60
2023-05-07T07:46:44.987Z,2.30
2023-05-07T07:49:13.425Z,2.60
2023-05-07T07:51:41.800Z,2.93
2023-05-07T07:54:10.275Z,3.43
2023-05-07T07:56:38.738Z,2.93
2023-05-07T07:59:07.049Z,2.90
2023-05-07T08:01:36.949Z,2.28
2023-05-07T08:04:06.742Z,2.30
2023-05-07T08:06:35.202Z,2.35
2023-05-07T08:09:04.157Z,2.75
2023-05-07T08:11:32.539Z,2.60
2023-05-07T08:14:01.280Z,2.72
2023-05-07T08:19:00.748Z,2.63
2023-05-07T08:21:29.120Z,2.30
2023-05-07T08:23:57.507Z,3.83
2023-05-07T08:26:25.787Z,2.83
2023-05-07T08:28:54.066Z,2.40
2023-05-07T08:31:22.402Z,2.50
2023-05-07T08:33:50.813Z,2.60
2023-05-07T08:36:21.033Z,2.13
2023-05-07T08:38:50.540Z,2.28
2023-05-07T08:41:19.240Z,1.58
2023-05-07T08:43:49.842Z,2.33
2023-05-07T08:46:20.718Z,3.40
2023-05-07T08:48:51.086Z,2.25
2023-05-07T08:51:21.975Z,1.80
2023-05-07T08:53:50.882Z,2.13
2023-05-07T08:56:22.442Z,2.47
2023-05-07T08:58:51.340Z,2.05
2023-05-07T09:01:19.896Z,3.05
2023-05-07T09:03:48.999Z,1.75
2023-05-07T09:06:18.475Z,1.88
2023-05-07T09:08:52.102Z,2.10
2023-05-07T09:11:23.282Z,2.45
2023-05-07T09:13:51.852Z,3.72
2023-05-07T09:16:20.393Z,3.15
2023-05-07T09:18:48.930Z,1.60
2023-05-07T09:21:18.128Z,1.60
2023-05-07T09:23:46.566Z,2.30
2023-05-07T09:26:17.011Z,3.75
2023-05-07T09:28:45.727Z,2.28
2023-05-07T09:31:14.290Z,2.80
2023-05-07T09:33:43.128Z,2.33
2023-05-07T09:36:12.172Z,2.10
2023-05-07T09:38:41.114Z,3.55
2023-05-07T09:41:10.520Z,3.75
2023-05-07T09:43:40.908Z,2.00
2023-05-07T09:46:09.906Z,3.13
2023-05-07T09:48:41.809Z,2.97
2023-05-07T09:51:18.835Z,2.55
2023-05-07T09:53:48.237Z,2.10
2023-05-07T09:56:17.685Z,2.65
2023-05-07T09:58:47.959Z,2.00
2023-05-07T10:01:16.455Z,2.42
2023-05-07T10:03:46.472Z,2.38
2023-05-07T10:06:15.860Z,2.73
2023-05-07T10:08:45.270Z,2.30
2023-05-07T10:11:14.035Z,3.80
2023-05-07T10:13:43.044Z,2.83
2023-05-07T10:16:13.325Z,3.10
2023-05-07T10:18:43.261Z,2.33
2023-05-07T10:21:14.130Z,2.33
2023-05-07T10:23:43.070Z,2.80
2023-05-07T10:26:11.499Z,3.30
2023-05-07T10:28:41.334Z,2.30
2023-05-07T10:31:29.790Z,2.60
2023-05-07T10:33:59.698Z,4.30
2023-05-07T10:36:28.909Z,2.50
2023-05-07T10:38:57.682Z,4.27
2023-05-07T10:41:26.130Z,4.13
2023-05-07T10:43:54.466Z,3.23
2023-05-07T10:46:25.393Z,3.33
2023-05-07T10:49:13.361Z,2.40
2023-05-07T10:51:41.966Z,2.80
2023-05-07T10:54:23.185Z,2.80
2023-05-07T10:56:53.793Z,2.87
2023-05-07T10:59:41.773Z,3.10
2023-05-07T11:02:12.496Z,2.70
2023-05-07T11:04:42.554Z,2.70
2023-05-07T11:07:31.847Z,2.53
2023-05-07T11:10:05.454Z,2.90
2023-05-07T11:12:53.392Z,2.20
2023-05-07T11:15:40.209Z,2.03
2023-05-07T11:18:10.601Z,2.83
2023-05-07T11:20:55.678Z,2.80
2023-05-07T11:23:42.604Z,2.50
2023-05-07T11:26:11.169Z,3.20
2023-05-07T11:28:40.329Z,2.60
2023-05-07T11:31:09.042Z,2.50
2023-05-07T11:33:39.297Z,2.70
2023-05-07T11:36:08.502Z,3.20
2023-05-07T11:38:38.060Z,3.03
2023-05-07T11:41:06.763Z,2.60
2023-05-07T11:43:36.718Z,3.30
2023-05-07T11:46:09.368Z,3.30
2023-05-07T11:48:39.357Z,2.77
2023-05-07T11:51:09.825Z,2.50
2023-05-07T11:53:39.229Z,3.47
2023-05-07T11:56:10.826Z,3.27
2023-05-07T11:58:39.286Z,2.70
2023-05-07T12:01:10.665Z,3.00
2023-05-07T12:03:40.908Z,2.87
2023-05-07T12:06:09.856Z,3.47
2023-05-07T12:08:39.638Z,8.00
2023-05-07T12:11:10.682Z,2.60
2023-05-07T12:13:39.051Z,5.43
2023-05-07T12:16:08.600Z,2.97
2023-05-07T12:18:38.221Z,3.30
2023-05-07T12:21:09.320Z,3.30
2023-05-07T12:23:38.593Z,3.77
2023-05-07T12:26:07.743Z,4.30
2023-05-07T12:28:39.829Z,3.03
2023-05-07T12:31:08.930Z,3.33
2023-05-07T12:33:37.661Z,3.40
2023-05-07T12:36:09.113Z,4.80
2023-05-07T12:38:38.247Z,2.83
2023-05-07T12:41:08.203Z,2.97
2023-05-07T12:43:36.754Z,3.80
2023-05-07T12:46:07.121Z,3.50
2023-05-07T12:48:35.721Z,5.60
2023-05-07T12:51:04.305Z,4.43
2023-05-07T12:53:34.064Z,4.20
2023-05-07T12:56:02.508Z,3.53
2023-05-07T12:58:31.502Z,3.77
2023-05-07T13:01:01.582Z,3.67
2023-05-07T13:03:30.893Z,3.50
2023-05-07T13:06:00.577Z,4.13
2023-05-07T13:08:34.331Z,3.03
2023-05-07T13:11:04.732Z,3.97
2023-05-07T13:13:33.484Z,2.83
2023-05-07T13:16:02.405Z,3.50
2023-05-07T13:18:32.538Z,3.23
2023-05-07T13:21:01.372Z,4.20
2023-05-07T13:23:29.975Z,3.20
2023-05-07T13:26:01.121Z,2.60
2023-05-07T13:28:32.509Z,3.33
2023-05-07T13:31:00.931Z,3.70
2023-05-07T13:33:29.266Z,4.20
2023-05-07T13:35:58.780Z,3.53
2023-05-07T13:38:27.258Z,3.27
2023-05-07T13:40:55.676Z,3.47
2023-05-07T13:43:25.437Z,3.07
2023-05-07T13:45:53.827Z,2.60
2023-05-07T13:48:22.151Z,3.10
2023-05-07T13:50:50.790Z,2.70
2023-05-07T13:53:19.540Z,3.80
2023-05-07T13:55:48.033Z,4.60
2023-05-07T13:58:16.491Z,4.60
2023-05-07T14:00:46.556Z,3.93
2023-05-07T14:03:15.127Z,3.30
2023-05-07T14:05:43.882Z,3.57
2023-05-07T14:08:13.834Z,3.50
2023-05-07T14:10:42.389Z,4.10
2023-05-07T14:13:10.816Z,6.13
2023-05-07T14:15:39.223Z,3.43
2023-05-07T14:18:08.890Z,5.87
2023-05-07T14:20:38.806Z,3.90
2023-05-07T14:23:07.540Z,4.30
2023-05-07T14:25:35.921Z,3.07
2023-05-07T14:28:04.204Z,3.40
2023-05-07T14:30:32.874Z,3.40
2023-05-07T14:33:01.239Z,3.57
2023-05-07T14:35:31.123Z,3.40
2023-05-07T14:37:59.546Z,4.30
2023-05-07T14:40:28.030Z,2.67
2023-05-07T14:42:58.088Z,3.37
2023-05-07T14:45:26.526Z,3.23
2023-05-07T14:47:55.002Z,3.23
2023-05-07T14:53:47.678Z,2.50
2023-05-07T14:56:16.253Z,3.57
2023-05-07T14:58:44.635Z,3.07
2023-05-07T15:01:13.106Z,3.20
2023-05-07T15:03:42.192Z,3.40
2023-05-07T15:06:10.775Z,2.90
2023-05-07T15:08:39.219Z,2.50
2023-05-07T15:11:08.903Z,2.70
2023-05-07T15:13:37.273Z,2.60
2023-05-07T15:16:05.830Z,2.80
2023-05-07T15:18:34.313Z,3.07
2023-05-07T15:21:02.742Z,2.80
2023-05-07T15:23:31.294Z,3.40
2023-05-07T15:25:59.769Z,2.83
2023-05-07T15:28:29.423Z,2.67
2023-05-07T15:30:57.906Z,3.00
2023-05-07T15:33:26.425Z,3.30
2023-05-07T15:35:54.808Z,2.80
2023-05-07T15:38:23.235Z,2.73
2023-05-07T15:40:51.590Z,3.00
2023-05-07T15:43:19.906Z,3.07
2023-05-07T15:45:49.819Z,2.10
2023-05-07T15:48:18.374Z,2.83
2023-05-07T15:50:46.970Z,3.27
2023-05-07T15:53:15.488Z,2.50
2023-05-07T15:55:45.838Z,2.70
2023-05-07T15:58:15.712Z,3.60
2023-05-07T16:00:44.137Z,3.30
2023-05-07T16:03:14.153Z,2.80
2023-05-07T16:05:42.637Z,2.63
2023-05-07T16:08:11.177Z,3.00
2023-05-07T16:10:39.496Z,3.27
2023-05-07T16:13:08.263Z,3.40
2023-05-07T16:15:37.066Z,3.73
2023-05-07T16:18:06.599Z,2.20
2023-05-07T16:20:36.447Z,3.30
2023-05-07T16:23:04.826Z,4.33
2023-05-07T16:25:33.158Z,2.60
2023-05-07T16:28:01.702Z,2.37
2023-05-07T16:30:30.049Z,2.73
2023-05-07T16:32:58.652Z,2.50
2023-05-07T16:35:27.375Z,2.13
2023-05-07T16:37:57.141Z,2.80
2023-05-07T16:40:25.636Z,2.20
2023-05-07T16:42:55.557Z,2.37
2023-05-07T16:45:24.068Z,3.20
2023-05-07T16:47:52.431Z,2.70
2023-05-07T16:50:21.124Z,3.00
2023-05-07T16:52:50.686Z,2.23
2023-05-07T16:55:20.470Z,3.03
2023-05-07T16:57:48.832Z,2.40
2023-05-07T17:00:17.571Z,3.50
2023-05-07T17:02:46.935Z,2.70
2023-05-07T17:05:15.832Z,2.70
2023-05-07T17:07:44.393Z,2.70
2023-05-07T17:10:12.872Z,3.07
2023-05-07T17:12:42.815Z,2.47
2023-05-07T17:15:12.142Z,2.63
2023-05-07T17:17:40.856Z,2.20
2023-05-07T17:20:10.134Z,3.40
2023-05-07T17:22:38.580Z,4.90
2023-05-07T17:25:07.395Z,2.90
2023-05-07T17:27:36.036Z,3.17
2023-05-07T17:30:06.249Z,2.60
2023-05-07T17:32:35.297Z,2.13
2023-05-07T17:35:04.082Z,2.40
2023-05-07T17:37:32.515Z,2.23
2023-05-07T17:40:00.949Z,2.40
2023-05-07T17:42:29.427Z,2.33
2023-05-07T17:44:57.747Z,2.30
2023-05-07T17:47:27.569Z,2.70
2023-05-07T17:49:56.134Z,2.43
2023-05-07T17:52:24.544Z,2.37
2023-05-07T17:54:55.549Z,2.47
2023-05-07T17:57:23.992Z,2.53
2023-05-07T17:59:52.218Z,3.03
2023-05-07T18:02:20.714Z,2.70
2023-05-07T18:04:50.486Z,2.57
2023-05-07T18:07:18.787Z,2.70
2023-05-07T18:09:47.118Z,2.43
2023-05-07T18:12:15.444Z,2.60
2023-05-07T18:14:43.773Z,2.40
2023-05-07T18:17:12.406Z,6.00
2023-05-07T18:19:40.783Z,2.30
2023-05-07T18:22:10.622Z,3.23
2023-05-07T18:24:39.066Z,3.80
2023-05-07T18:27:07.679Z,4.40
2023-05-07T18:29:36.194Z,4.50
2023-05-07T18:32:04.607Z,3.87
2023-05-07T18:34:32.956Z,14.50
2023-05-07T18:37:01.541Z,17.97
2023-05-07T18:39:31.347Z,10.03
2023-05-07T18:41:59.890Z,20.07
2023-05-07T18:44:28.324Z,74.13
2023-05-07T18:46:56.655Z,20.80
2023-05-07T18:49:25.157Z,6.23
2023-05-07T18:51:54.129Z,8.40
2023-05-07T18:54:22.555Z,9.33
2023-05-07T18:56:52.250Z,5.00
2023-05-07T18:59:20.788Z,25.03
2023-05-07T19:01:49.300Z,27.10
2023-05-07T19:04:18.298Z,48.07
2023-05-07T19:06:46.640Z,54.30
2023-05-07T19:09:15.459Z,32.67
2023-05-07T19:11:43.808Z,13.43
2023-05-07T19:14:13.551Z,11.20
2023-05-07T19:16:42.048Z,6.20
2023-05-07T19:19:11.033Z,9.70
2023-05-07T19:21:39.467Z,4.60
2023-05-07T19:24:08.508Z,4.80
2023-05-07T19:26:36.846Z,5.73
2023-05-07T19:29:16.716Z,4.00
2023-05-07T19:31:48.148Z,3.77
2023-05-07T19:34:16.630Z,5.03
2023-05-07T19:36:44.995Z,3.83
2023-05-07T19:39:13.555Z,4.07
2023-05-07T19:41:42.946Z,4.83
2023-05-07T19:44:11.427Z,19.30
2023-05-07T19:46:44.627Z,25.33
2023-05-07T19:49:14.421Z,18.53
2023-05-07T19:51:42.822Z,10.23
2023-05-07T19:54:11.200Z,9.00
2023-05-07T19:56:40.019Z,9.53
2023-05-07T19:59:08.354Z,6.77
2023-05-07T20:01:39.081Z,6.07
2023-05-07T20:04:07.768Z,14.10
2023-05-07T20:06:37.421Z,10.40
2023-05-07T20:09:10.154Z,6.47
2023-05-07T20:11:38.488Z,21.00
2023-05-07T20:14:06.973Z,13.63
2023-05-07T20:16:35.511Z,27.30
2023-05-07T20:19:03.984Z,7.20
2023-05-07T20:21:32.366Z,7.07
2023-05-07T20:24:00.839Z,5.80
2023-05-07T20:26:30.644Z,4.70
2023-05-07T20:28:58.928Z,4.53
2023-05-07T20:31:27.711Z,4.53
2023-05-07T20:33:56.241Z,4.47
2023-05-07T20:36:26.013Z,4.10
2023-05-07T20:38:54.421Z,3.73
2023-05-07T20:41:25.102Z,4.40
2023-05-07T20:43:54.994Z,4.87
2023-05-07T20:46:25.208Z,4.33
2023-05-07T20:48:53.740Z,3.70
2023-05-07T20:51:22.324Z,6.53
2023-05-07T20:53:50.757Z,4.33
2023-05-07T20:56:19.139Z,6.30
2023-05-07T20:58:47.493Z,4.80
2023-05-07T21:01:17.388Z,4.37
2023-05-07T21:03:45.891Z,4.20
2023-05-07T21:06:14.371Z,4.80
2023-05-07T21:08:42.666Z,3.83
2023-05-07T21:11:13.015Z,4.43
2023-05-07T21:13:41.529Z,4.30
2023-05-07T21:16:10.851Z,3.83
2023-05-07T21:18:40.673Z,4.70
2023-05-07T21:21:09.464Z,4.00
2023-05-07T21:23:37.954Z,5.50
2023-05-07T21:26:06.426Z,4.33
2023-05-07T21:28:35.008Z,3.77
2023-05-07T21:31:03.338Z,4.03
2023-05-07T21:33:32.040Z,4.57
2023-05-07T21:36:01.891Z,4.80
2023-05-07T21:38:30.301Z,6.07
2023-05-07T21:40:58.922Z,4.33
2023-05-07T21:43:27.483Z,4.87
2023-05-07T21:45:55.994Z,4.30
2023-05-07T21:48:24.391Z,4.97
2023-05-07T21:51:02.448Z,4.80
2023-05-07T21:53:30.836Z,8.43
2023-05-07T21:56:00.234Z,4.10
2023-05-07T21:58:28.712Z,4.70
2023-05-07T22:00:57.203Z,4.70
2023-05-07T22:03:25.678Z,5.13
2023-05-07T22:05:54.205Z,4.37
2023-05-07T22:08:23.860Z,6.50
2023-05-07T22:10:52.461Z,4.60
2023-05-07T22:13:20.818Z,4.50
2023-05-07T22:15:57.364Z,4.33
2023-05-07T22:18:26.808Z,3.93
2023-05-07T22:20:55.280Z,4.50
2023-05-07T22:23:25.075Z,4.30
2023-05-07T22:25:53.575Z,4.30
2023-05-07T22:28:22.177Z,4.80
2023-05-07T22:30:50.536Z,3.80
2023-05-07T22:33:19.010Z,5.00
2023-05-07T22:35:47.445Z,3.77
2023-05-07T22:38:15.927Z,3.90
2023-05-07T22:40:45.896Z,4.73
2023-05-07T22:43:14.376Z,6.20
2023-05-07T22:45:42.793Z,4.47
2023-05-07T22:48:11.262Z,4.13
2023-05-07T22:50:39.996Z,4.17
2023-05-07T22:53:08.719Z,4.27
2023-05-07T22:55:37.149Z,3.87
2023-05-07T22:58:08.003Z,4.77
2023-05-07T23:00:36.411Z,4.37
2023-05-07T23:03:05.047Z,7.03
2023-05-07T23:05:33.579Z,6.30
2023-05-07T23:08:02.232Z,3.80
2023-05-07T23:10:34.426Z,5.80
2023-05-07T23:13:03.440Z,4.27
2023-05-07T23:15:33.578Z,4.27
2023-05-07T23:18:02.102Z,3.37
2023-05-07T23:20:30.498Z,4.13
2023-05-07T23:22:58.988Z,4.27
2023-05-07T23:25:28.137Z,4.50
2023-05-07T23:52:57.096Z,4.60
2023-05-07T23:55:26.950Z,4.70
2023-05-07T23:57:55.306Z,4.40
